Time;durP1;ratioP1;P1;durP2;ratioP2;P2;SDS_P1;SDS_P2;PMS_P1;PMS_P2;Temp;Humidity;BMP_temperature;BMP_pressure;BME280_temperature;BME280_humidity;BME280_pressure;Samples;Min_cycle;Max_cycle;Signal;HPM_P1;HPM_P2
2021/10/10 00:00:49;;;;;;;14.68;11.32;;;19.20;77.60;;;;;;5033385;28;20032;-81
2021/10/10 00:03:14;;;;;;;14.25;10.75;;;19.20;77.70;;;;;;5032514;28;20033;-82
2021/10/10 00:05:40;;;;;;;11.73;9.93;;;19.20;77.70;;;;;;5032593;28;20045;-81
2021/10/10 00:08:06;;;;;;;14.63;10.35;;;19.20;77.70;;;;;;5032347;28;20033;-79
2021/10/10 00:10:32;;;;;;;14.65;10.93;;;19.20;77.70;;;;;;5032793;28;20041;-81
2021/10/10 00:13:00;;;;;;;13.48;10.55;;;19.20;77.50;;;;;;5033054;28;20385;-81
2021/10/10 00:15:27;;;;;;;13.15;10.65;;;19.10;77.40;;;;;;5031379;28;20048;-79
2021/10/10 00:17:52;;;;;;;13.02;11.18;;;19.20;77.30;;;;;;5031623;28;20481;-79
2021/10/10 00:20:18;;;;;;;12.80;10.93;;;19.20;77.20;;;;;;5032695;28;20028;-80
2021/10/10 00:22:44;;;;;;;14.88;11.68;;;19.20;77.20;;;;;;5032989;28;20033;-78
2021/10/10 00:25:10;;;;;;;13.38;10.70;;;19.10;76.90;;;;;;5032584;28;20036;-79
2021/10/10 00:27:37;;;;;;;12.63;10.43;;;19.20;77.00;;;;;;5032049;28;20037;-81
2021/10/10 00:30:04;;;;;;;14.30;12.02;;;19.10;76.80;;;;;;5032206;28;20029;-79
2021/10/10 00:32:31;;;;;;;13.68;11.70;;;19.10;76.70;;;;;;5031895;28;20037;-79
2021/10/10 00:34:56;;;;;;;12.98;10.70;;;19.10;76.70;;;;;;5032146;28;20018;-80
2021/10/10 00:37:22;;;;;;;15.80;11.25;;;19.10;76.70;;;;;;5031731;28;20029;-80
2021/10/10 00:39:48;;;;;;;14.68;10.75;;;19.10;76.70;;;;;;5031166;28;20017;-78
2021/10/10 00:42:13;;;;;;;15.68;11.45;;;19.10;76.60;;;;;;5032245;28;20375;-79
2021/10/10 00:44:39;;;;;;;13.43;11.27;;;19.10;76.50;;;;;;5032103;28;20558;-80
2021/10/10 00:47:05;;;;;;;14.20;11.10;;;19.10;77.00;;;;;;5031970;28;20416;-79
2021/10/10 00:49:32;;;;;;;12.07;10.10;;;19.10;76.40;;;;;;5013335;28;20048;-78
2021/10/10 00:51:58;;;;;;;13.02;10.27;;;19.00;76.30;;;;;;5032219;28;20030;-79
2021/10/10 00:54:27;;;;;;;13.73;11.07;;;19.00;76.20;;;;;;5031960;28;20477;-81
2021/10/10 00:56:54;;;;;;;14.20;11.15;;;19.00;76.20;;;;;;5032189;28;20025;-80
2021/10/10 00:59:22;;;;;;;15.30;11.30;;;19.00;76.10;;;;;;5031303;28;20025;-79
2021/10/10 01:01:51;;;;;;;14.18;11.30;;;19.00;76.10;;;;;;5032025;28;20051;-80
2021/10/10 01:04:17;;;;;;;15.68;12.02;;;19.00;76.00;;;;;;5031674;28;20032;-80
2021/10/10 01:06:43;;;;;;;14.05;11.32;;;19.00;76.10;;;;;;5013757;28;20046;-79
2021/10/10 01:09:11;;;;;;;15.23;11.57;;;19.00;76.00;;;;;;5031172;28;20037;-81
2021/10/10 01:11:38;;;;;;;15.00;12.30;;;19.00;76.00;;;;;;5014023;28;20481;-80
2021/10/10 01:14:04;;;;;;;14.48;10.90;;;19.00;75.90;;;;;;5031759;28;20393;-80
2021/10/10 01:16:30;;;;;;;14.02;11.30;;;18.90;75.70;;;;;;5030943;28;20029;-81
2021/10/10 01:18:56;;;;;;;15.25;11.80;;;18.90;75.60;;;;;;5030594;28;20401;-81
2021/10/10 01:21:22;;;;;;;14.65;11.35;;;18.90;75.50;;;;;;5031157;28;20021;-81
2021/10/10 01:23:48;;;;;;;12.18;10.80;;;18.90;75.50;;;;;;5031955;28;20033;-81
2021/10/10 01:26:14;;;;;;;13.95;10.80;;;18.90;75.50;;;;;;5031296;28;20116;-80
2021/10/10 01:28:41;;;;;;;14.23;11.30;;;18.90;75.50;;;;;;5030962;28;20033;-80
2021/10/10 01:31:06;;;;;;;13.35;10.60;;;18.90;75.40;;;;;;5030990;28;20063;-79
2021/10/10 01:33:33;;;;;;;11.77;10.25;;;18.90;75.40;;;;;;5030258;28;20033;-81
2021/10/10 01:35:59;;;;;;;13.55;11.60;;;18.80;75.30;;;;;;5031358;28;20482;-80
2021/10/10 01:38:25;;;;;;;14.60;10.85;;;18.80;75.20;;;;;;5030961;28;20044;-81
2021/10/10 01:40:51;;;;;;;14.57;11.20;;;18.80;75.00;;;;;;5031065;28;20533;-80
2021/10/10 01:43:17;;;;;;;11.88;10.35;;;18.80;74.90;;;;;;5014093;28;20112;-81
2021/10/10 01:45:43;;;;;;;13.93;11.77;;;18.80;74.90;;;;;;5030602;28;20037;-80
2021/10/10 01:48:10;;;;;;;16.75;11.85;;;18.80;74.90;;;;;;5030514;28;20193;-81
2021/10/10 01:50:37;;;;;;;14.18;11.65;;;18.80;74.90;;;;;;5030723;28;20116;-81
2021/10/10 01:53:03;;;;;;;16.05;11.40;;;18.80;74.80;;;;;;5030974;28;20030;-78
2021/10/10 01:55:29;;;;;;;12.77;10.70;;;18.80;74.80;;;;;;5030838;28;20018;-79
2021/10/10 01:57:55;;;;;;;14.18;11.15;;;18.80;74.70;;;;;;5031113;28;20038;-76
2021/10/10 02:00:20;;;;;;;14.27;11.02;;;18.70;74.70;;;;;;5012378;28;20057;-77
2021/10/10 02:02:46;;;;;;;14.48;11.27;;;18.70;74.50;;;;;;5030981;28;20076;-79
2021/10/10 02:05:12;;;;;;;13.63;9.50;;;18.70;74.40;;;;;;5031009;28;20099;-79
2021/10/10 02:07:38;;;;;;;13.63;11.23;;;18.70;74.40;;;;;;5030757;28;20037;-79
2021/10/10 02:10:05;;;;;;;13.68;11.00;;;18.70;74.50;;;;;;5030600;28;20029;-79
2021/10/10 02:12:31;;;;;;;17.52;10.63;;;18.70;74.40;;;;;;5030877;28;20026;-80
2021/10/10 02:14:56;;;;;;;12.93;10.75;;;18.70;74.40;;;;;;5030804;28;20432;-79
2021/10/10 02:17:22;;;;;;;12.15;10.68;;;18.70;74.30;;;;;;5030450;28;20026;-80
2021/10/10 02:19:47;;;;;;;14.40;11.18;;;18.70;74.40;;;;;;5012774;28;20037;-80
2021/10/10 02:22:13;;;;;;;12.82;9.88;;;18.70;74.30;;;;;;5030920;28;20042;-80
2021/10/10 02:24:39;;;;;;;11.88;10.18;;;18.60;74.20;;;;;;5012961;28;20037;-80
2021/10/10 02:27:04;;;;;;;12.93;10.02;;;18.60;74.10;;;;;;5029831;28;20064;-79
2021/10/10 02:29:31;;;;;;;12.52;10.52;;;18.60;74.00;;;;;;5012889;28;20060;-79
2021/10/10 02:31:57;;;;;;;13.65;10.48;;;18.60;74.10;;;;;;5030561;28;20366;-80
2021/10/10 02:34:23;;;;;;;14.18;11.25;;;18.60;74.10;;;;;;5030703;28;20044;-80
2021/10/10 02:36:48;;;;;;;12.07;9.45;;;18.60;74.10;;;;;;5030365;28;20485;-79
2021/10/10 02:39:14;;;;;;;12.70;10.73;;;18.60;74.00;;;;;;5033892;28;20037;-79
2021/10/10 02:41:40;;;;;;;12.82;10.88;;;18.60;73.90;;;;;;5034497;28;20057;-80
2021/10/10 02:44:06;;;;;;;15.98;12.10;;;18.50;73.70;;;;;;5034306;28;20025;-80
2021/10/10 02:46:32;;;;;;;15.43;11.05;;;18.50;73.70;;;;;;5033504;28;20030;-80
2021/10/10 02:48:58;;;;;;;14.95;11.13;;;18.50;73.70;;;;;;5034567;28;20033;-80
2021/10/10 02:51:24;;;;;;;13.57;10.88;;;18.50;73.60;;;;;;5034192;28;20075;-80
2021/10/10 02:53:50;;;;;;;15.85;11.68;;;18.50;73.70;;;;;;5034549;28;20026;-80
2021/10/10 02:56:15;;;;;;;17.90;13.30;;;18.50;73.70;;;;;;5033848;28;20025;-79
2021/10/10 02:58:43;;;;;;;14.88;11.27;;;18.50;73.60;;;;;;5015953;28;20021;-81
2021/10/10 03:01:11;;;;;;;17.38;12.07;;;18.50;73.60;;;;;;5034229;28;20553;-80
2021/10/10 03:03:37;;;;;;;15.30;11.63;;;18.50;73.60;;;;;;5033005;28;20100;-80
2021/10/10 03:06:03;;;;;;;15.73;11.93;;;18.50;73.60;;;;;;5033819;28;20592;-80
2021/10/10 03:08:28;;;;;;;12.52;10.95;;;18.50;73.60;;;;;;5033714;28;20022;-80
2021/10/10 03:10:54;;;;;;;13.55;10.88;;;18.50;73.70;;;;;;5033904;28;20029;-79
2021/10/10 03:13:20;;;;;;;13.30;10.88;;;18.50;73.60;;;;;;5015797;28;20164;-80
2021/10/10 03:15:45;;;;;;;13.40;11.05;;;18.40;73.60;;;;;;5033929;28;20447;-79
2021/10/10 03:18:11;;;;;;;14.70;11.80;;;18.40;73.60;;;;;;5033492;28;20041;-81
2021/10/10 03:20:37;;;;;;;14.10;10.68;;;18.40;73.60;;;;;;5033762;28;20503;-78
2021/10/10 03:23:02;;;;;;;14.93;11.50;;;18.40;73.50;;;;;;5015874;28;20026;-81
2021/10/10 03:25:28;;;;;;;13.48;10.70;;;18.40;73.60;;;;;;5033577;28;20095;-80
2021/10/10 03:27:54;;;;;;;13.95;11.13;;;18.40;73.60;;;;;;5033036;28;20025;-80
2021/10/10 03:30:19;;;;;;;15.00;11.18;;;18.40;73.60;;;;;;5033506;28;20026;-80
2021/10/10 03:32:45;;;;;;;13.65;10.98;;;18.40;73.60;;;;;;5033539;28;20053;-80
2021/10/10 03:35:11;;;;;;;12.75;10.60;;;18.40;73.50;;;;;;5033598;28;20030;-80
2021/10/10 03:37:36;;;;;;;14.70;11.07;;;18.40;73.60;;;;;;5033267;28;20370;-80
2021/10/10 03:40:10;;;;;;;14.65;11.05;;;18.30;73.40;;;;;;5033529;28;20448;-78
2021/10/10 03:42:37;;;;;;;15.77;11.38;;;18.30;73.50;;;;;;5032684;28;20025;-79
2021/10/10 03:45:06;;;;;;;13.18;11.05;;;18.30;73.40;;;;;;5033478;28;20022;-80
2021/10/10 03:47:32;;;;;;;12.13;10.23;;;18.30;73.40;;;;;;5032913;28;20025;-80
2021/10/10 03:49:58;;;;;;;13.23;10.13;;;18.30;73.20;;;;;;5032816;28;20501;-79
2021/10/10 03:52:24;;;;;;;14.02;10.00;;;18.30;73.20;;;;;;5032370;28;20025;-80
2021/10/10 03:57:34;;;;;;;11.93;9.60;;;18.30;73.10;;;;;;5033237;28;20436;-80
2021/10/10 04:00:03;;;;;;;12.05;10.27;;;18.30;73.10;;;;;;5033191;28;20021;-79
2021/10/10 04:02:28;;;;;;;12.43;10.07;;;18.30;73.10;;;;;;5032365;28;20030;-80
2021/10/10 04:04:54;;;;;;;10.52;8.55;;;18.30;73.10;;;;;;5033001;28;20042;-80
2021/10/10 04:07:21;;;;;;;11.90;9.35;;;18.30;73.20;;;;;;5032413;28;20049;-80
2021/10/10 04:09:47;;;;;;;11.82;9.30;;;18.20;73.10;;;;;;5015507;28;20024;-79
2021/10/10 04:12:13;;;;;;;10.70;9.13;;;18.20;73.00;;;;;;5032312;28;20030;-79
2021/10/10 04:14:39;;;;;;;10.80;9.13;;;18.20;73.10;;;;;;5032457;28;20032;-79
2021/10/10 04:17:05;;;;;;;12.50;9.02;;;18.20;73.00;;;;;;5032394;28;20438;-80
2021/10/10 04:19:31;;;;;;;9.40;8.35;;;18.20;73.10;;;;;;5014767;28;20592;-80
2021/10/10 04:21:58;;;;;;;10.10;8.63;;;18.20;73.00;;;;;;5032217;28;20052;-80
2021/10/10 04:24:23;;;;;;;10.52;8.98;;;18.20;73.00;;;;;;5032307;28;20033;-79
2021/10/10 04:26:49;;;;;;;10.10;8.55;;;18.20;73.00;;;;;;5032677;28;20405;-80
2021/10/10 04:29:15;;;;;;;11.00;8.65;;;18.20;73.00;;;;;;5033009;28;20065;-79
2021/10/10 04:31:41;;;;;;;9.10;7.93;;;18.20;73.00;;;;;;5031646;28;20108;-80
2021/10/10 04:34:06;;;;;;;9.57;7.55;;;18.20;73.10;;;;;;5032332;28;20512;-81
2021/10/10 04:36:32;;;;;;;10.48;8.60;;;18.10;72.90;;;;;;5031977;28;20493;-80
2021/10/10 04:38:57;;;;;;;9.40;8.32;;;18.20;73.00;;;;;;5032310;28;20040;-80
2021/10/10 04:41:23;;;;;;;10.70;8.77;;;18.10;72.90;;;;;;5014218;28;20112;-80
2021/10/10 04:43:49;;;;;;;9.32;8.25;;;18.10;72.90;;;;;;5031696;28;20022;-80
2021/10/10 04:46:14;;;;;;;9.02;7.57;;;18.10;72.90;;;;;;5032491;28;20049;-80
2021/10/10 04:48:40;;;;;;;10.27;8.10;;;18.10;72.90;;;;;;5031131;28;20063;-80
2021/10/10 04:51:06;;;;;;;9.20;7.88;;;18.10;72.90;;;;;;5031558;28;20063;-80
2021/10/10 04:53:31;;;;;;;10.68;8.40;;;18.10;72.80;;;;;;5030988;28;20045;-80
2021/10/10 04:55:57;;;;;;;9.48;7.47;;;18.10;72.90;;;;;;5032060;28;20501;-79
2021/10/10 04:58:22;;;;;;;9.27;7.88;;;18.10;72.90;;;;;;5031846;28;20535;-80
2021/10/10 05:00:48;;;;;;;10.90;8.50;;;18.10;72.80;;;;;;5031292;28;20052;-79
2021/10/10 05:03:14;;;;;;;9.35;7.68;;;18.00;72.80;;;;;;5031894;28;20104;-79
2021/10/10 05:05:42;;;;;;;8.95;7.78;;;18.00;72.70;;;;;;5031693;28;20080;-79
2021/10/10 05:08:11;;;;;;;8.20;7.40;;;18.00;72.70;;;;;;5031590;28;20892;-79
2021/10/10 05:10:37;;;;;;;9.38;7.65;;;18.10;72.70;;;;;;5014205;28;20432;-79
2021/10/10 05:13:04;;;;;;;9.63;7.70;;;18.10;72.60;;;;;;5030888;28;20117;-80
2021/10/10 05:15:30;;;;;;;8.57;7.68;;;18.10;72.60;;;;;;5031532;28;20018;-80
2021/10/10 05:17:56;;;;;;;9.55;7.45;;;18.00;72.50;;;;;;5031358;28;20032;-80
2021/10/10 05:20:22;;;;;;;9.18;7.25;;;18.00;72.50;;;;;;5013465;28;20100;-81
2021/10/10 05:22:48;;;;;;;9.43;7.90;;;18.00;72.50;;;;;;5031505;28;20113;-81
2021/10/10 05:25:14;;;;;;;7.95;7.15;;;18.00;72.40;;;;;;5031546;28;20029;-81
2021/10/10 05:27:39;;;;;;;9.20;7.28;;;18.00;72.40;;;;;;5031192;28;20037;-80
2021/10/10 05:30:06;;;;;;;8.95;7.47;;;18.00;72.40;;;;;;5031630;28;20029;-80
2021/10/10 05:32:31;;;;;;;8.90;7.70;;;18.00;72.40;;;;;;5030504;28;20109;-80
2021/10/10 05:34:57;;;;;;;8.23;7.15;;;18.00;72.40;;;;;;5031182;28;20096;-80
2021/10/10 05:37:23;;;;;;;8.15;7.20;;;17.90;72.30;;;;;;5031216;28;20462;-80
2021/10/10 05:39:49;;;;;;;8.13;6.90;;;18.00;72.30;;;;;;5031457;28;20389;-82
2021/10/10 05:42:16;;;;;;;8.75;7.50;;;17.90;72.20;;;;;;5031064;28;20034;-81
2021/10/10 05:44:42;;;;;;;8.52;7.47;;;17.90;72.20;;;;;;5030775;28;20032;-80
2021/10/10 05:47:08;;;;;;;8.65;7.28;;;17.90;72.20;;;;;;5030709;28;20041;-80
2021/10/10 05:49:34;;;;;;;8.63;7.38;;;17.90;72.00;;;;;;5030453;28;20026;-81
2021/10/10 05:51:59;;;;;;;8.65;7.68;;;17.90;71.80;;;;;;5030725;28;20030;-79
2021/10/10 05:54:28;;;;;;;8.38;7.38;;;17.90;72.00;;;;;;5030998;28;20064;-80
2021/10/10 05:56:54;;;;;;;8.68;7.55;;;17.90;72.00;;;;;;5031337;28;20404;-81
2021/10/10 05:59:21;;;;;;;8.98;7.40;;;17.90;72.00;;;;;;5030984;28;20037;-80
2021/10/10 06:01:47;;;;;;;8.82;7.15;;;17.90;72.00;;;;;;5031176;28;20107;-81
2021/10/10 06:04:12;;;;;;;9.45;7.40;;;17.90;72.00;;;;;;5031116;28;20068;-81
2021/10/10 06:06:38;;;;;;;8.85;7.28;;;17.90;72.00;;;;;;5030766;28;20389;-80
2021/10/10 06:09:06;;;;;;;7.75;6.93;;;18.00;72.10;;;;;;5030791;28;20448;-80
2021/10/10 06:11:33;;;;;;;8.68;7.57;;;17.90;72.00;;;;;;5030679;28;20026;-80
2021/10/10 06:14:00;;;;;;;9.93;7.55;;;18.00;72.00;;;;;;5032935;28;20520;-78
2021/10/10 06:16:26;;;;;;;9.05;7.53;;;18.00;72.00;;;;;;5017029;28;20389;-79
2021/10/10 06:18:53;;;;;;;8.82;6.97;;;18.00;72.00;;;;;;5034101;28;20021;-80
2021/10/10 06:21:19;;;;;;;8.27;7.38;;;18.00;72.00;;;;;;5035258;28;20366;-80
2021/10/10 06:23:44;;;;;;;9.55;7.57;;;18.00;72.00;;;;;;5034625;28;20034;-80
2021/10/10 06:26:10;;;;;;;10.90;8.43;;;18.00;72.00;;;;;;5035001;28;20030;-81
2021/10/10 06:28:36;;;;;;;8.68;7.18;;;18.00;72.70;;;;;;5034440;28;20498;-80
2021/10/10 06:31:01;;;;;;;9.20;7.30;;;18.10;72.00;;;;;;5034607;28;20033;-80
2021/10/10 06:33:27;;;;;;;9.90;7.68;;;18.10;72.10;;;;;;5033909;28;20513;-80
2021/10/10 06:35:52;;;;;;;9.75;8.02;;;18.10;72.10;;;;;;5034471;28;20033;-80
2021/10/10 06:38:18;;;;;;;9.95;8.15;;;18.10;72.10;;;;;;5034754;28;20029;-80
2021/10/10 06:40:46;;;;;;;10.93;8.05;;;18.20;72.20;;;;;;5034869;28;20454;-81
2021/10/10 06:43:12;;;;;;;11.52;8.35;;;18.20;72.10;;;;;;5034077;28;20030;-81
2021/10/10 06:45:38;;;;;;;9.13;7.47;;;18.20;72.10;;;;;;5034244;28;20033;-80
2021/10/10 06:48:04;;;;;;;10.35;8.13;;;18.20;72.10;;;;;;5034058;28;20029;-79
2021/10/10 06:50:29;;;;;;;9.38;7.85;;;18.20;72.10;;;;;;5016565;28;20025;-79
2021/10/10 06:52:55;;;;;;;10.73;8.52;;;18.30;72.10;;;;;;5034397;28;20362;-80
2021/10/10 06:55:21;;;;;;;11.05;8.85;;;18.30;72.10;;;;;;5034216;28;20534;-79
2021/10/10 06:57:46;;;;;;;10.15;8.57;;;18.30;72.00;;;;;;5033925;28;20124;-79
2021/10/10 07:00:13;;;;;;;9.60;8.45;;;18.30;72.10;;;;;;5034135;28;20374;-80
2021/10/10 07:02:42;;;;;;;9.70;8.70;;;18.30;72.00;;;;;;5033644;28;20464;-80
2021/10/10 07:05:09;;;;;;;10.85;8.18;;;18.40;72.10;;;;;;5034021;28;20037;-80
2021/10/10 07:07:35;;;;;;;10.07;8.52;;;18.40;72.10;;;;;;5033514;28;20037;-80
2021/10/10 07:10:01;;;;;;;10.77;8.48;;;18.40;72.10;;;;;;5034079;28;20385;-80
2021/10/10 07:12:26;;;;;;;10.13;8.35;;;18.50;72.00;;;;;;5033876;28;20030;-79
2021/10/10 07:14:52;;;;;;;11.82;9.18;;;18.50;72.80;;;;;;5034108;28;20018;-79
2021/10/10 07:17:18;;;;;;;10.88;8.80;;;18.50;72.00;;;;;;5033807;28;20030;-80
2021/10/10 07:19:50;;;;;;;10.27;8.50;;;18.50;72.70;;;;;;5034131;28;20105;-81
2021/10/10 07:22:27;;;;;;;10.48;8.27;;;18.50;72.00;;;;;;5034184;28;20057;-80
2021/10/10 07:25:04;;;;;;;10.75;8.73;;;18.60;72.00;;;;;;5033129;28;20032;-79
2021/10/10 07:27:40;;;;;;;12.18;9.30;;;18.60;72.00;;;;;;5033259;28;20034;-81
2021/10/10 07:30:08;;;;;;;10.73;8.90;;;18.60;71.90;;;;;;5033130;28;20083;-80
2021/10/10 07:32:33;;;;;;;9.90;8.40;;;18.60;71.80;;;;;;5015365;28;20448;-80
2021/10/10 07:35:00;;;;;;;10.15;8.52;;;18.60;71.80;;;;;;5015660;28;20025;-80
2021/10/10 07:37:26;;;;;;;11.60;9.57;;;18.60;71.80;;;;;;5033061;28;20029;-81
2021/10/10 07:39:52;;;;;;;9.75;8.48;;;18.70;71.90;;;;;;5033400;28;20032;-79
2021/10/10 07:42:18;;;;;;;11.10;9.05;;;18.70;71.80;;;;;;5033384;28;20055;-83
2021/10/10 07:44:45;;;;;;;11.88;8.98;;;18.70;71.80;;;;;;5034128;28;20036;-82
2021/10/10 07:47:34;;;;;;;11.68;9.43;;;18.70;71.70;;;;;;5033022;28;20087;-79
2021/10/10 07:50:00;;;;;;;11.45;9.02;;;18.80;72.00;;;;;;5033176;28;20022;-80
2021/10/10 07:52:26;;;;;;;9.93;8.65;;;18.80;72.00;;;;;;5031513;28;20488;-80
2021/10/10 07:54:52;;;;;;;13.05;8.65;;;18.80;72.10;;;;;;5031367;28;20033;-79
2021/10/10 07:57:18;;;;;;;11.07;9.45;;;18.90;72.10;;;;;;5031654;28;20045;-80
2021/10/10 07:59:43;;;;;;;12.82;9.82;;;18.90;72.10;;;;;;5031550;28;20049;-80
2021/10/10 08:02:09;;;;;;;12.05;10.32;;;18.90;72.20;;;;;;5030963;28;20059;-81
2021/10/10 08:04:34;;;;;;;12.00;9.80;;;18.90;72.30;;;;;;5031222;28;20075;-82
2021/10/10 08:07:00;;;;;;;12.10;9.13;;;18.90;72.40;;;;;;5031154;28;20029;-79
2021/10/10 08:09:26;;;;;;;11.60;9.27;;;19.00;72.60;;;;;;5029101;28;20500;-81
2021/10/10 08:11:51;;;;;;;11.35;9.25;;;19.00;72.70;;;;;;5031455;28;20029;-81
2021/10/10 08:14:17;;;;;;;12.63;9.32;;;19.00;72.70;;;;;;5032210;28;20021;-81
2021/10/10 08:16:44;;;;;;;10.73;9.23;;;19.10;72.70;;;;;;5031837;28;20484;-79
2021/10/10 08:19:10;;;;;;;12.45;9.75;;;19.10;72.70;;;;;;5031551;28;20025;-81
2021/10/10 08:21:35;;;;;;;11.73;9.60;;;19.10;72.80;;;;;;5031312;28;20041;-79
2021/10/10 08:24:02;;;;;;;11.80;9.45;;;19.10;72.70;;;;;;5031199;28;20099;-82
2021/10/10 08:26:29;;;;;;;12.23;9.93;;;19.10;72.60;;;;;;5030507;28;20076;-82
2021/10/10 08:28:55;;;;;;;12.27;9.82;;;19.20;72.50;;;;;;5031729;28;20026;-79
2021/10/10 08:31:22;;;;;;;11.57;9.05;;;19.20;72.50;;;;;;5031094;28;20091;-80
2021/10/10 08:33:48;;;;;;;11.10;9.80;;;19.20;72.50;;;;;;5028280;28;20018;-81
2021/10/10 08:36:13;;;;;;;11.75;9.68;;;19.20;72.40;;;;;;5029964;28;20378;-80
2021/10/10 08:38:39;;;;;;;11.57;9.32;;;19.20;72.40;;;;;;5015974;28;20075;-79
2021/10/10 08:41:06;;;;;;;10.80;9.25;;;19.30;72.30;;;;;;5031105;28;20037;-78
2021/10/10 08:43:33;;;;;;;11.50;9.57;;;;;;;;;;5026091;28;20049;-79
2021/10/10 08:46:05;;;;;;;13.77;9.43;;;;;;;;;;5031351;28;20095;-79
2021/10/10 08:48:39;;;;;;;11.25;9.50;;;19.30;71.80;;;;;;5030124;28;20021;-79
2021/10/10 08:51:04;;;;;;;12.27;8.98;;;19.40;73.20;;;;;;5017790;28;20378;-79
2021/10/10 08:53:30;;;;;;;11.38;9.13;;;19.40;72.70;;;;;;5031223;28;20032;-79
2021/10/10 08:55:56;;;;;;;10.73;8.98;;;19.40;72.60;;;;;;5031367;28;20028;-78
2021/10/10 08:58:25;;;;;;;11.07;9.05;;;19.40;72.60;;;;;;5030545;28;20397;-77
2021/10/10 09:01:00;;;;;;;10.48;9.23;;;19.40;73.10;;;;;;5033385;28;20495;-80
2021/10/10 09:03:26;;;;;;;10.82;9.15;;;19.50;72.50;;;;;;5028188;28;20033;-79
2021/10/10 09:05:52;;;;;;;11.45;8.88;;;19.50;72.50;;;;;;5034195;28;20041;-78
2021/10/10 09:08:18;;;;;;;12.88;9.18;;;19.50;72.50;;;;;;5035098;28;20078;-80
2021/10/10 09:10:44;;;;;;;17.55;10.30;;;;;;;;;;5031119;28;20120;-78
2021/10/10 09:13:16;;;;;;;11.57;9.38;;;19.50;72.50;;;;;;5030779;28;20029;-79
2021/10/10 09:15:47;;;;;;;11.25;8.85;;;19.60;73.40;;;;;;5030655;28;20489;-79
2021/10/10 09:18:13;;;;;;;18.20;10.35;;;19.60;73.00;;;;;;5036179;28;20029;-79
2021/10/10 09:20:43;;;;;;;13.85;9.95;;;19.60;73.30;;;;;;5030466;28;20033;-79
2021/10/10 09:23:15;;;;;;;15.88;10.73;;;19.60;73.20;;;;;;5030702;28;20166;-79
2021/10/10 09:25:55;;;;;;;17.60;10.30;;;19.60;73.00;;;;;;5030054;28;20034;-81
2021/10/10 09:28:22;;;;;;;24.38;10.50;;;19.60;73.30;;;;;;5029842;28;20497;-80
2021/10/10 09:30:49;;;;;;;16.00;11.13;;;19.60;73.20;;;;;;5029326;28;20046;-81
2021/10/10 09:33:15;;;;;;;15.90;11.18;;;19.60;73.00;;;;;;5030830;28;20023;-78
2021/10/10 09:35:42;;;;;;;20.52;11.57;;;19.60;73.30;;;;;;5030003;28;20401;-79
2021/10/10 09:38:23;;;;;;;14.40;10.07;;;19.60;73.30;;;;;;5030445;28;20399;-86
2021/10/10 09:40:59;;;;;;;13.15;10.57;;;19.70;73.20;;;;;;5021826;28;20036;-80
2021/10/10 09:43:24;;;;;;;16.38;10.85;;;19.70;73.60;;;;;;5030057;28;20451;-80
2021/10/10 09:45:53;;;;;;;18.48;11.50;;;19.70;73.60;;;;;;5030682;28;20049;-81
2021/10/10 09:48:34;;;;;;;17.17;10.85;;;19.70;73.50;;;;;;5029417;28;20064;-79
2021/10/10 09:51:00;;;;;;;18.23;11.23;;;19.80;73.60;;;;;;5029869;28;20025;-81
2021/10/10 09:53:33;;;;;;;19.52;11.13;;;19.80;73.70;;;;;;5031198;28;20385;-80
2021/10/10 09:56:06;;;;;;;15.88;10.32;;;19.80;74.00;;;;;;5038205;28;20029;-80
2021/10/10 09:58:35;;;;;;;12.85;10.25;;;19.80;74.10;;;;;;5039443;28;20033;-77
2021/10/10 10:01:19;;;;;;;12.93;10.27;;;19.80;74.20;;;;;;5030152;28;20176;-77
2021/10/10 10:04:01;;;;;;;14.25;10.65;;;19.80;74.10;;;;;;5030016;28;20108;-76
2021/10/10 10:06:28;;;;;;;14.57;10.70;;;19.80;74.10;;;;;;5028972;28;20485;-77
2021/10/10 10:08:55;;;;;;;15.63;11.88;;;19.80;74.10;;;;;;5030870;28;20034;-77
2021/10/10 10:11:22;;;;;;;17.50;11.35;;;19.90;74.20;;;;;;5030454;28;20044;-77
2021/10/10 10:13:49;;;;;;;14.07;11.77;;;19.90;74.10;;;;;;5031324;28;20022;-78
2021/10/10 10:16:16;;;;;;;20.40;13.32;;;19.90;74.00;;;;;;5030659;28;20037;-78
2021/10/10 10:18:42;;;;;;;18.70;13.65;;;20.00;73.90;;;;;;5026860;28;20073;-77
2021/10/10 10:21:08;;;;;;;21.77;14.30;;;20.00;74.00;;;;;;5030655;28;20083;-76
2021/10/10 10:23:36;;;;;;;21.83;13.70;;;20.00;74.10;;;;;;5029837;28;20021;-76
2021/10/10 10:26:02;;;;;;;16.92;11.93;;;20.00;74.00;;;;;;5030303;28;20044;-76
2021/10/10 10:28:31;;;;;;;20.38;13.25;;;20.10;73.90;;;;;;5030079;28;20068;-77
2021/10/10 10:30:57;;;;;;;23.60;12.48;;;20.10;73.90;;;;;;5029694;28;20056;-77
2021/10/10 10:33:23;;;;;;;17.65;12.95;;;20.10;74.10;;;;;;5030232;28;20033;-77
2021/10/10 10:35:48;;;;;;;15.13;11.75;;;20.20;73.90;;;;;;5030357;28;20473;-77
2021/10/10 10:38:15;;;;;;;18.42;13.10;;;20.20;73.90;;;;;;5030787;28;20076;-77
2021/10/10 10:40:41;;;;;;;19.55;11.95;;;20.20;73.70;;;;;;5012379;28;20071;-78
2021/10/10 10:43:11;;;;;;;18.60;12.45;;;20.30;73.60;;;;;;5029988;28;20108;-77
2021/10/10 10:45:39;;;;;;;18.55;12.68;;;20.30;73.50;;;;;;5030547;28;20033;-77
2021/10/10 10:48:25;;;;;;;18.48;14.07;;;;;;;;;;5012339;28;20083;-79
2021/10/10 10:50:54;;;;;;;22.60;11.77;;;;;;;;;;5006946;28;20080;-80
2021/10/10 10:53:24;;;;;;;19.08;13.50;;;;;;;;;;5018575;28;20030;-78
2021/10/10 10:55:54;;;;;;;18.98;12.25;;;;;;;;;;5030101;28;20095;-79
2021/10/10 10:58:20;;;;;;;19.20;12.75;;;;;;;;;;5029652;28;20021;-78
2021/10/10 11:00:50;;;;;;;15.77;12.07;;;;;;;;;;5033211;28;20120;-78
2021/10/10 11:03:25;;;;;;;18.05;12.10;;;;;;;;;;5032740;28;20064;-80
2021/10/10 11:05:52;;;;;;;16.37;12.27;;;;;;;;;;5034153;28;20107;-79
2021/10/10 11:08:18;;;;;;;18.27;13.40;;;;;;;;;;5034078;28;20346;-82
2021/10/10 11:11:03;;;;;;;18.42;13.35;;;;;;;;;;5033904;28;20473;-79
2021/10/10 11:13:35;;;;;;;17.80;12.10;;;;;;;;;;5026653;28;20025;-80
2021/10/10 11:16:06;;;;;;;16.80;13.02;;;;;;;;;;5025565;28;20377;-78
2021/10/10 11:18:32;;;;;;;21.02;14.15;;;20.90;71.60;;;;;;5027335;28;20404;-84
2021/10/10 11:21:02;;;;;;;18.88;14.10;;;20.90;71.90;;;;;;5030828;28;20121;-78
2021/10/10 11:23:28;;;;;;;21.60;15.15;;;20.90;72.00;;;;;;5032448;28;20017;-80
2021/10/10 11:25:56;;;;;;;18.70;14.38;;;21.00;72.00;;;;;;5031343;28;20529;-81
2021/10/10 11:28:45;;;;;;;21.33;14.10;;;21.10;71.80;;;;;;5029121;28;20029;-80
2021/10/10 11:31:16;;;;;;;18.92;14.40;;;21.10;72.30;;;;;;5030793;28;20053;-80
2021/10/10 11:33:46;;;;;;;26.48;15.68;;;21.20;71.60;;;;;;5031999;28;20432;-78
2021/10/10 11:36:13;;;;;;;24.17;15.48;;;21.20;72.00;;;;;;5033313;28;20063;-80
2021/10/10 11:38:51;;;;;;;23.33;14.57;;;21.40;71.70;;;;;;5033155;28;20403;-78
2021/10/10 11:41:16;;;;;;;21.58;14.27;;;21.40;71.80;;;;;;5034576;28;20033;-79
2021/10/10 11:44:07;;;;;;;23.75;15.40;;;21.60;71.70;;;;;;5032312;28;20032;-78
2021/10/10 11:46:45;;;;;;;25.08;16.00;;;21.60;72.80;;;;;;5051156;28;20516;-79
2021/10/10 11:49:56;;;;;;;25.85;15.98;;;21.70;73.20;;;;;;5033861;28;20477;-78
2021/10/10 11:52:31;;;;;;;20.45;15.73;;;21.80;72.80;;;;;;5016831;28;20033;-78
2021/10/10 11:57:31;;;;;;;20.27;15.20;;;;;;;;;;5032331;28;20485;-76
2021/10/10 12:00:05;;;;;;;20.48;15.18;;;22.00;71.80;;;;;;5032752;28;20036;-77
2021/10/10 12:02:35;;;;;;;18.00;13.98;;;;;;;;;;5032065;28;20056;-80
2021/10/10 12:05:12;;;;;;;20.15;15.07;;;;;;;;;;5032932;28;20484;-77
2021/10/10 12:07:39;;;;;;;19.50;13.93;;;;;;;;;;5031535;28;20068;-78
2021/10/10 12:10:07;;;;;;;19.75;14.23;;;22.60;69.70;;;;;;5012052;28;20079;-79
2021/10/10 12:12:33;;;;;;;25.00;15.50;;;23.60;66.60;;;;;;5032235;28;20494;-79
2021/10/10 12:15:00;;;;;;;24.60;13.63;;;;;;;;;;5032663;28;20067;-81
2021/10/10 12:17:43;;;;;;;19.75;13.80;;;23.90;65.20;;;;;;5030918;28;20428;-81
2021/10/10 12:20:18;;;;;;;21.80;13.90;;;;;;;;;;5021639;28;20313;-81
2021/10/10 12:22:56;;;;;;;17.75;13.88;;;;;;;;;;5032752;28;20026;-84
2021/10/10 12:25:43;;;;;;;17.77;13.27;;;;;;;;;;5031684;28;20033;-81
2021/10/10 12:28:14;;;;;;;21.17;13.63;;;24.30;64.00;;;;;;5037020;28;20084;-83
2021/10/10 12:30:42;;;;;;;19.85;12.40;;;24.30;64.60;;;;;;5030410;28;20036;-79
2021/10/10 12:33:27;;;;;;;19.27;12.55;;;24.20;64.40;;;;;;5027744;28;20030;-80
2021/10/10 12:36:03;;;;;;;17.98;12.93;;;24.30;64.30;;;;;;5028944;28;20100;-80
2021/10/10 12:38:38;;;;;;;18.02;13.60;;;24.10;65.10;;;;;;5030587;28;20065;-81
2021/10/10 12:41:19;;;;;;;24.65;12.73;;;24.10;65.70;;;;;;5032013;28;20033;-81
2021/10/10 12:43:50;;;;;;;20.77;13.07;;;23.90;65.90;;;;;;5032295;28;20389;-83
2021/10/10 12:46:17;;;;;;;18.27;13.25;;;23.90;65.90;;;;;;5017738;28;20065;-79
2021/10/10 12:48:54;;;;;;;19.63;13.07;;;23.80;66.20;;;;;;5031867;28;20032;-82